Time;durP1;ratioP1;P1;durP2;ratioP2;P2;SDS_P1;SDS_P2;PMS_P1;PMS_P2;Temp;Humidity;BMP_temperature;BMP_pressure;BME280_temperature;BME280_humidity;BME280_pressure;Samples;Min_cycle;Max_cycle;Signal;HPM_P1;HPM_P2
2022/04/26 03:36:16;;;;;;;15.60;13.27;;;;;;;7.56;100.00;100431.44;5050152;28;21039;-63
2022/04/26 03:38:43;;;;;;;21.40;12.00;;;;;;;7.51;100.00;100428.13;5050037;28;20118;-63
2022/04/26 03:41:08;;;;;;;13.35;10.93;;;;;;;7.40;100.00;100414.63;5049282;28;20147;-63
2022/04/26 03:43:34;;;;;;;17.10;11.23;;;;;;;7.52;100.00;100440.31;5064606;28;20020;-62
2022/04/26 03:45:59;;;;;;;16.58;11.60;;;;;;;7.42;100.00;100428.50;5092717;28;20024;-62
2022/04/26 03:48:25;;;;;;;13.80;11.80;;;;;;;7.49;100.00;100450.88;5038503;28;20036;-63
2022/04/26 03:50:50;;;;;;;17.98;12.35;;;;;;;7.47;100.00;100442.25;5051201;28;20031;-62
2022/04/26 03:53:16;;;;;;;16.48;11.25;;;;;;;7.39;100.00;100434.69;5063879;28;20498;-62
2022/04/26 03:55:41;;;;;;;14.02;10.68;;;;;;;7.42;100.00;100450.25;5092750;28;20343;-62
2022/04/26 03:58:07;;;;;;;12.65;10.88;;;;;;;7.09;100.00;100389.63;5074467;28;20036;-62
2022/04/26 04:00:32;;;;;;;14.00;10.75;;;;;;;6.89;100.00;100363.38;5057289;28;20938;-62
2022/04/26 04:02:58;;;;;;;14.63;9.80;;;;;;;7.37;100.00;100446.94;5048748;28;20130;-63
2022/04/26 04:05:23;;;;;;;9.98;8.63;;;;;;;7.33;100.00;100444.53;5050810;28;20039;-62
2022/04/26 04:07:48;;;;;;;11.05;8.73;;;;;;;7.33;100.00;100444.53;5050302;28;20028;-62
2022/04/26 04:10:14;;;;;;;9.15;7.80;;;;;;;7.28;100.00;100447.28;5050179;28;20059;-62
2022/04/26 04:12:39;;;;;;;10.57;7.53;;;;;;;7.28;100.00;100456.88;5049609;28;20032;-62
2022/04/26 04:15:05;;;;;;;10.38;8.07;;;;;;;7.06;100.00;100423.66;5050511;28;20035;-62
2022/04/26 04:17:31;;;;;;;19.75;7.88;;;;;;;7.18;100.00;100452.00;5049285;28;20101;-62
2022/04/26 04:19:56;;;;;;;9.10;6.57;;;;;;;7.05;100.00;100442.03;5051499;28;20133;-63
2022/04/26 04:22:21;;;;;;;10.52;7.32;;;;;;;7.15;100.00;100456.47;5067240;28;20064;-63
2022/04/26 04:24:48;;;;;;;11.90;7.65;;;;;;;7.18;100.00;100469.44;5070353;28;20051;-62
2022/04/26 04:27:13;;;;;;;17.00;6.82;;;;;;;7.13;100.00;100466.13;5060803;28;20400;-62
2022/04/26 04:29:39;;;;;;;11.00;7.72;;;;;;;7.08;100.00;100460.19;5049018;28;20056;-62
2022/04/26 04:32:04;;;;;;;13.25;7.47;;;;;;;7.06;100.00;100465.47;5080959;28;20035;-62
2022/04/26 04:34:30;;;;;;;11.07;6.72;;;;;;;6.96;100.00;100461.47;5091966;28;20033;-64
2022/04/26 04:36:56;;;;;;;8.82;6.80;;;;;;;7.02;100.00;100483.94;5072611;28;20040;-63
2022/04/26 04:39:23;;;;;;;8.45;6.43;;;;;;;6.90;100.00;100482.56;5050323;28;20132;-62
2022/04/26 04:41:51;;;;;;;10.23;6.40;;;;;;;6.89;100.00;100486.13;5050344;28;20036;-62
2022/04/26 04:44:17;;;;;;;9.63;6.22;;;;;;;6.86;100.00;100488.81;5056391;28;20891;-62
2022/04/26 04:46:43;;;;;;;8.30;6.10;;;;;;;6.60;100.00;100454.88;5049318;28;20082;-62
2022/04/26 04:49:08;;;;;;;8.02;5.95;;;;;;;6.76;100.00;100484.78;5031906;28;20024;-63
2022/04/26 04:51:33;;;;;;;8.60;6.57;;;;;;;6.75;100.00;100493.56;5030288;28;20020;-62
2022/04/26 04:53:59;;;;;;;8.30;6.40;;;;;;;6.77;100.00;100499.56;5048995;28;21117;-61
2022/04/26 04:56:27;;;;;;;7.60;5.93;;;;;;;6.65;100.00;100507.81;5048652;28;20084;-62
2022/04/26 04:58:53;;;;;;;13.52;6.75;;;;;;;6.48;100.00;100515.31;5077777;28;20036;-62
2022/04/26 05:01:18;;;;;;;11.07;6.90;;;;;;;6.18;100.00;100484.97;5083602;28;20039;-63
2022/04/26 05:03:44;;;;;;;11.52;7.18;;;;;;;6.24;100.00;100516.09;5075588;28;20056;-63
2022/04/26 05:06:14;;;;;;;12.10;8.15;;;;;;;6.15;100.00;100518.06;5039440;28;20893;-64
2022/04/26 05:08:39;;;;;;;11.82;7.50;;;;;;;6.12;100.00;100507.72;5033689;28;20024;-63
2022/04/26 05:11:05;;;;;;;11.02;7.75;;;;;;;6.12;100.00;100512.06;5046975;28;20947;-63
2022/04/26 05:13:31;;;;;;;8.95;7.30;;;;;;;6.10;100.00;100513.88;5048939;28;20063;-62
2022/04/26 05:15:56;;;;;;;10.48;7.13;;;;;;;6.18;100.00;100521.50;5054427;28;20560;-62
2022/04/26 05:18:22;;;;;;;10.15;7.20;;;;;;;5.86;100.00;100471.13;5053937;28;20028;-62
2022/04/26 05:20:47;;;;;;;14.70;8.35;;;;;;;6.18;100.00;100512.75;5053076;28;20040;-62
2022/04/26 05:25:56;;;;;;;10.43;7.53;;;;;;;6.32;100.00;100524.53;5075231;28;20044;-62
2022/04/26 05:28:21;;;;;;;10.35;7.00;;;;;;;6.36;100.00;100519.16;5075263;28;20463;-62
2022/04/26 05:30:47;;;;;;;11.60;7.75;;;;;;;6.32;100.00;100517.53;5041045;28;20029;-62
2022/04/26 05:33:12;;;;;;;15.85;7.60;;;;;;;6.41;100.00;100529.47;5031845;28;20024;-63
2022/04/26 05:35:38;;;;;;;10.88;7.38;;;;;;;6.47;100.00;100532.72;5051974;28;20024;-62
2022/04/26 05:38:03;;;;;;;11.30;7.35;;;;;;;6.50;100.00;100534.38;5052749;28;20127;-62
2022/04/26 05:40:28;;;;;;;10.30;6.90;;;;;;;6.49;100.00;100530.09;5051513;28;20038;-62
2022/04/26 05:42:54;;;;;;;9.43;6.65;;;;;;;6.40;100.00;100517.31;5051569;28;20036;-62
2022/04/26 05:45:19;;;;;;;11.43;6.80;;;;;;;6.62;100.00;100549.69;5052954;28;20028;-62
2022/04/26 05:47:45;;;;;;;10.10;6.38;;;;;;;6.67;100.00;100545.16;5052968;28;20788;-62
2022/04/26 05:50:11;;;;;;;9.43;6.03;;;;;;;6.72;100.00;100542.41;5053085;28;20873;-63
2022/04/26 05:52:36;;;;;;;7.72;5.82;;;;;;;6.56;100.00;100519.38;5035894;28;20084;-63
2022/04/26 05:55:04;;;;;;;10.90;7.03;;;;;;;6.82;100.00;100542.06;5053127;28;20043;-63
2022/04/26 05:57:30;;;;;;;7.85;5.95;;;;;;;6.77;100.00;100535.25;5034945;28;20043;-63
2022/04/26 05:59:56;;;;;;;13.40;7.10;;;;;;;6.79;100.00;100523.88;5051395;28;20128;-63
2022/04/26 06:02:21;;;;;;;8.55;6.55;;;;;;;7.00;100.00;100551.88;5050705;28;20797;-63
2022/04/26 06:04:46;;;;;;;9.25;6.68;;;;;;;7.05;100.00;100560.44;5048142;28;20030;-63
2022/04/26 06:07:12;;;;;;;8.00;5.85;;;;;;;7.14;100.00;100551.44;5048395;28;20105;-63
2022/04/26 06:09:37;;;;;;;9.35;6.38;;;;;;;7.24;100.00;100565.03;5045819;28;20036;-62
2022/04/26 06:12:04;;;;;;;10.65;6.97;;;;;;;7.27;100.00;100549.25;5050761;28;20093;-62
2022/04/26 06:14:30;;;;;;;8.63;6.28;;;;;;;7.28;100.00;100530.06;5050755;28;20039;-61
2022/04/26 06:16:55;;;;;;;9.02;5.93;;;;;;;7.49;100.00;100560.69;5050921;28;20794;-61
2022/04/26 06:19:20;;;;;;;10.60;7.05;;;;;;;7.59;100.00;100562.06;5053055;28;20020;-62
2022/04/26 06:21:46;;;;;;;10.40;6.53;;;;;;;7.48;100.00;100543.28;5050932;28;20785;-61
2022/04/26 06:24:11;;;;;;;10.40;6.18;;;;;;;7.64;100.00;100568.84;5050608;28;20150;-62
2022/04/26 06:26:37;;;;;;;10.55;6.68;;;;;;;7.63;100.00;100581.97;5043630;28;20052;-62
2022/04/26 06:29:02;;;;;;;8.52;6.30;;;;;;;7.62;100.00;100572.41;5031682;28;20033;-62
2022/04/26 06:31:28;;;;;;;9.68;6.40;;;;;;;7.62;100.00;100572.41;5032846;28;20024;-62
2022/04/26 06:33:53;;;;;;;13.88;7.10;;;;;;;7.64;100.00;100570.59;5039263;28;20916;-62
2022/04/26 06:36:18;;;;;;;8.95;6.60;;;;;;;7.77;100.00;100577.13;5051760;28;20032;-61
2022/04/26 06:38:44;;;;;;;8.70;6.68;;;;;;;7.86;100.00;100571.53;5050458;28;20056;-61
2022/04/26 06:41:09;;;;;;;11.35;6.45;;;;;;;8.01;100.00;100573.59;5050367;28;20043;-62
2022/04/26 06:43:35;;;;;;;8.55;6.30;;;;;;;8.21;100.00;100578.94;5051334;28;20233;-62
2022/04/26 06:46:00;;;;;;;11.63;6.63;;;;;;;8.20;100.00;100556.31;5050299;28;20861;-62
2022/04/26 06:48:26;;;;;;;10.25;7.55;;;;;;;8.13;100.00;100528.66;5050046;28;20028;-61
2022/04/26 06:50:54;;;;;;;7.43;6.45;;;;;;;8.61;100.00;100582.69;5051909;28;20834;-62
2022/04/26 06:53:20;;;;;;;11.52;7.22;;;;;;;8.85;100.00;100592.22;5050737;28;20028;-62
2022/04/26 06:55:45;;;;;;;8.60;6.22;;;;;;;8.86;100.00;100572.94;5051133;28;20100;-62
2022/04/26 06:58:11;;;;;;;11.23;7.30;;;;;;;8.97;100.00;100594.31;5050977;28;20028;-62
2022/04/26 07:00:36;;;;;;;16.05;8.02;;;;;;;8.91;100.00;100586.72;5050450;28;20025;-61
2022/04/26 07:03:01;;;;;;;23.00;9.50;;;;;;;8.85;100.00;100581.72;5051679;28;20032;-62
2022/04/26 07:05:27;;;;;;;33.72;11.13;;;;;;;8.78;100.00;100590.75;5050077;28;20859;-62
2022/04/26 07:07:52;;;;;;;14.07;7.65;;;;;;;8.64;100.00;100593.03;5050756;28;20032;-62
2022/04/26 07:10:18;;;;;;;10.90;7.30;;;;;;;8.72;100.00;100589.19;5051264;28;20942;-62
2022/04/26 07:12:43;;;;;;;10.32;7.95;;;;;;;8.72;100.00;100598.81;5050481;28;20033;-62
2022/04/26 07:15:09;;;;;;;12.75;7.60;;;;;;;8.73;100.00;100596.16;5051027;28;20038;-62
2022/04/26 07:17:38;;;;;;;11.30;8.13;;;;;;;8.90;100.00;100595.47;5050508;28;20032;-62
2022/04/26 07:20:04;;;;;;;12.50;7.35;;;;;;;8.96;100.00;100600.47;5051999;28;20028;-62
2022/04/26 07:22:31;;;;;;;12.55;7.78;;;;;;;9.06;100.00;100599.19;5051981;28;20135;-62
2022/04/26 07:24:57;;;;;;;11.35;8.20;;;;;;;9.13;100.00;100608.50;5043687;28;20135;-62
2022/04/26 07:27:22;;;;;;;12.27;8.38;;;;;;;9.07;100.00;100605.28;5047070;28;20032;-62
2022/04/26 07:29:51;;;;;;;11.98;8.13;;;;;;;8.95;100.00;100611.88;5052252;28;20873;-61
2022/04/26 07:32:17;;;;;;;16.00;8.63;;;;;;;9.00;100.00;100616.91;5066762;28;20133;-62
2022/04/26 07:34:42;;;;;;;13.20;8.25;;;;;;;9.01;100.00;100619.50;5050019;28;20038;-62
2022/04/26 07:37:08;;;;;;;14.18;8.73;;;;;;;9.01;100.00;100613.41;5050172;28;20823;-62
2022/04/26 07:39:34;;;;;;;11.80;8.02;;;;;;;8.64;100.00;100557.22;5050222;28;20925;-61
2022/04/26 07:42:02;;;;;;;13.13;9.30;;;;;;;8.98;100.00;100630.09;5050570;28;20036;-62
2022/04/26 07:44:28;;;;;;;13.32;7.93;;;;;;;8.85;100.00;100622.78;5050921;28;20028;-62
2022/04/26 07:46:54;;;;;;;12.93;8.10;;;;;;;8.86;100.00;100625.34;5049554;28;20075;-61
2022/04/26 07:49:21;;;;;;;10.35;8.35;;;;;;;8.70;100.00;100608.50;5049669;28;20039;-62
2022/04/26 07:51:47;;;;;;;14.50;9.10;;;;;;;8.78;100.00;100622.19;5032291;28;20024;-62
2022/04/26 07:54:12;;;;;;;14.32;10.43;;;;;;;8.67;100.00;100630.44;5050268;28;20031;-61
2022/04/26 07:56:38;;;;;;;13.98;10.05;;;;;;;8.73;100.00;100635.44;5049046;28;20908;-62
2022/04/26 07:59:04;;;;;;;16.73;9.93;;;;;;;8.74;100.00;100641.53;5049552;28;20052;-62
2022/04/26 08:01:30;;;;;;;13.65;9.10;;;;;;;8.69;100.00;100646.09;5048997;28;20972;-62
2022/04/26 08:03:56;;;;;;;12.07;8.50;;;;;;;8.68;100.00;100639.16;5049067;28;20032;-62
2022/04/26 08:06:22;;;;;;;13.50;8.95;;;;;;;8.69;100.00;100639.09;5049070;28;20020;-62
2022/04/26 08:08:47;;;;;;;12.43;9.20;;;;;;;8.88;100.00;100659.34;5050250;28;20110;-62
2022/04/26 08:11:13;;;;;;;11.88;9.45;;;;;;;8.87;100.00;100658.50;5050886;28;20067;-62
2022/04/26 08:13:43;;;;;;;19.88;9.55;;;;;;;8.60;100.00;100638.59;5049472;28;20030;-61
2022/04/26 08:16:09;;;;;;;19.25;9.48;;;;;;;8.62;100.00;100669.06;5048498;28;20459;-61
2022/04/26 08:18:35;;;;;;;17.27;10.30;;;;;;;8.59;100.00;100673.53;5031029;28;20039;-61
2022/04/26 08:21:00;;;;;;;15.65;10.45;;;;;;;8.55;100.00;100677.22;5050500;28;20863;-61
2022/04/26 08:23:26;;;;;;;13.75;9.93;;;;;;;8.45;100.00;100673.22;5031343;28;20085;-62
2022/04/26 08:28:36;;;;;;;17.55;10.75;;;;;;;8.54;100.00;100685.97;5049872;28;20071;-62
2022/04/26 08:31:02;;;;;;;14.07;11.05;;;;;;;8.44;100.00;100695.94;5032161;28;20017;-62
2022/04/26 08:33:29;;;;;;;14.30;10.70;;;;;;;8.51;100.00;100702.66;5032622;28;20060;-63
2022/04/26 08:35:55;;;;;;;18.05;11.23;;;;;;;8.64;100.00;100713.53;5049718;28;20030;-62
2022/04/26 08:38:20;;;;;;;15.85;11.05;;;;;;;8.78;100.00;100699.91;5054118;28;20040;-62
2022/04/26 08:40:46;;;;;;;22.20;11.25;;;;;;;8.95;100.00;100708.00;5053445;28;20092;-62
2022/04/26 08:43:12;;;;;;;12.93;10.45;;;;;;;8.90;100.00;100668.84;5055731;28;20028;-63
2022/04/26 08:45:38;;;;;;;14.73;10.65;;;;;;;9.34;100.00;100708.19;5037440;28;20032;-62
2022/04/26 08:51:03;;;;;;;14.50;10.75;;;;;;;9.51;100.00;100710.97;5053737;28;20067;-63
2022/04/26 08:53:30;;;;;;;13.75;9.27;;;;;;;9.52;100.00;100710.94;5053102;28;20605;-62
2022/04/26 08:56:00;;;;;;;14.65;10.50;;;;;;;9.50;100.00;100717.13;5034585;28;20373;-63
2022/04/26 08:58:27;;;;;;;15.68;11.25;;;;;;;9.42;100.00;100700.88;5052694;28;20109;-62
2022/04/26 09:01:16;;;;;;;15.60;9.73;;;;;;;9.61;100.00;100726.28;5034850;28;20026;-62
2022/04/26 09:03:54;;;;;;;12.13;9.38;;;;;;;9.64;100.00;100722.66;5034275;28;20138;-63
2022/04/26 09:06:25;;;;;;;20.55;10.85;;;;;;;9.54;100.00;100714.31;5052655;28;20970;-62
2022/04/26 09:08:50;;;;;;;15.80;9.77;;;;;;;9.49;100.00;100720.69;5034863;28;20032;-63
2022/04/26 09:11:32;;;;;;;14.93;10.82;;;;;;;9.51;100.00;100724.09;5052402;28;20077;-63
2022/04/26 09:13:58;;;;;;;17.73;10.75;;;;;;;9.47;100.00;100736.47;5052714;28;20032;-63
2022/04/26 09:16:24;;;;;;;9.25;8.32;;;;;;;9.31;100.00;100727.53;5052610;28;20020;-62
2022/04/26 09:18:51;;;;;;;13.68;9.43;;;;;;;9.21;100.00;100721.78;5053709;28;20930;-62
2022/04/26 09:21:17;;;;;;;12.98;9.43;;;;;;;9.24;100.00;100740.00;5051756;28;20782;-62
2022/04/26 09:23:44;;;;;;;12.85;9.15;;;;;;;9.17;100.00;100741.16;5051957;28;20059;-62
2022/04/26 09:26:11;;;;;;;12.70;9.38;;;;;;;9.11;100.00;100741.41;5051898;28;20404;-62
2022/04/26 09:28:38;;;;;;;10.30;8.77;;;;;;;9.23;100.00;100740.06;5052103;28;20024;-62
2022/04/26 09:31:23;;;;;;;12.25;10.10;;;;;;;8.97;100.00;100667.69;5067578;28;20024;-62
2022/04/26 09:33:52;;;;;;;15.32;9.20;;;;;;;9.56;100.00;100733.50;5051788;28;20039;-62
2022/04/26 09:36:21;;;;;;;11.65;8.90;;;;;;;9.79;100.00;100744.81;5051357;28;20028;-62
2022/04/26 09:38:58;;;;;;;12.45;9.45;;;;;;;10.01;100.00;100741.22;5052589;28;20028;-62
2022/04/26 09:41:25;;;;;;;16.13;8.95;;;;;;;10.20;100.00;100742.19;5050839;28;20385;-63
2022/04/26 09:43:57;;;;;;;16.38;9.35;;;;;;;10.15;100.00;100744.16;5050960;28;20059;-63
2022/04/26 09:46:24;;;;;;;12.02;8.10;;;;;;;10.35;100.00;100761.66;5051023;28;20036;-63
2022/04/26 09:48:51;;;;;;;13.65;8.23;;;;;;;10.42;100.00;100760.47;5050680;28;20031;-63
2022/04/26 09:51:17;;;;;;;17.40;9.13;;;;;;;10.37;100.00;100759.84;5050923;28;20020;-61
2022/04/26 09:53:42;;;;;;;13.40;8.80;;;;;;;10.44;100.00;100763.06;5051068;28;21022;-62
2022/04/26 09:56:09;;;;;;;10.90;8.43;;;;;;;10.65;100.00;100760.31;5051564;28;20024;-62
2022/04/26 09:58:37;;;;;;;11.10;8.60;;;;;;;10.78;100.00;100750.13;5051724;28;20024;-62
2022/04/26 10:01:05;;;;;;;11.27;8.45;;;;;;;10.99;100.00;100745.63;5033830;28;20896;-63
2022/04/26 10:03:35;;;;;;;13.90;8.80;;;;;;;11.59;100.00;100748.00;5053307;28;20028;-62
2022/04/26 10:06:07;;;;;;;11.73;8.55;;;;;;;11.95;100.00;100726.94;5067749;28;20092;-63
2022/04/26 10:08:37;;;;;;;14.23;8.38;;;;;;;11.94;100.00;100740.16;5052039;28;20041;-62
2022/04/26 10:11:03;;;;;;;17.35;7.43;;;;;;;11.94;100.00;100737.53;5052699;28;20020;-62
2022/04/26 10:13:39;;;;;;;13.75;7.53;;;;;;;12.11;100.00;100745.44;5033815;28;20023;-63
2022/04/26 10:16:07;;;;;;;16.88;8.15;;;;;;;11.96;100.00;100744.44;5035464;28;20039;-62
2022/04/26 10:18:40;;;;;;;8.98;6.70;;;;;;;12.00;100.00;100753.00;5051478;28;20135;-62
2022/04/26 10:21:06;;;;;;;15.93;7.93;;;;;;;11.76;100.00;100747.22;5052182;28;20032;-63
2022/04/26 10:23:50;;;;;;;12.68;7.70;;;;;;;12.35;100.00;100751.22;5051081;28;20034;-63
2022/04/26 10:26:33;;;;;;;11.77;8.20;;;;;;;12.58;100.00;100764.06;5051374;28;20059;-62
2022/04/26 10:29:08;;;;;;;11.88;7.70;;;;;;;12.63;100.00;100757.63;5051756;28;20054;-63
2022/04/26 10:31:55;;;;;;;9.25;7.07;;;;;;;12.76;100.00;100752.53;5035300;28;20027;-62
2022/04/26 10:34:21;;;;;;;10.85;6.93;;;;;;;12.85;100.00;100759.97;5052059;28;20035;-63
2022/04/26 10:36:51;;;;;;;15.32;8.95;;;;;;;12.64;100.00;100750.56;5052200;28;20137;-62
2022/04/26 10:39:24;;;;;;;12.55;7.95;;;;;;;12.63;100.00;100740.97;5051163;28;20373;-62
2022/04/26 10:41:50;;;;;;;17.35;8.73;;;;;;;12.55;100.00;100722.03;5023402;28;20033;-61
2022/04/26 10:44:16;;;;;;;10.15;7.65;;;;;;;12.45;100.00;100753.31;5030638;28;20039;-62
2022/04/26 10:46:42;;;;;;;10.27;7.22;;;;;;;12.75;100.00;100764.03;5042386;28;20063;-62
2022/04/26 10:49:26;;;;;;;10.88;7.75;;;;;;;13.19;100.00;100751.09;5073479;28;20534;-62
2022/04/26 10:51:56;;;;;;;12.73;7.63;;;;;;;13.72;100.00;100750.72;5074621;28;20029;-61
2022/04/26 10:54:46;;;;;;;12.57;6.20;;;;;;;14.05;100.00;100766.41;5078674;28;20387;-62
2022/04/26 10:57:16;;;;;;;7.90;6.50;;;;;;;14.05;100.00;100755.84;5073267;28;20086;-62
2022/04/26 10:59:50;;;;;;;14.23;7.85;;;;;;;13.96;100.00;100754.56;5058235;28;20074;-63
2022/04/26 11:02:20;;;;;;;11.95;7.68;;;;;;;13.27;100.00;100767.38;5072098;28;20555;-61
2022/04/26 11:04:46;;;;;;;14.70;7.35;;;;;;;12.87;100.00;100770.44;5061420;28;20077;-63
2022/04/26 11:07:17;;;;;;;15.80;7.28;;;;;;;12.71;100.00;100759.84;5050907;28;20035;-62
2022/04/26 11:09:50;;;;;;;10.80;6.88;;;;;;;12.64;100.00;100774.31;5052103;28;20028;-62
2022/04/26 11:12:19;;;;;;;12.88;6.80;;;;;;;12.82;100.00;100778.59;5051242;28;20028;-62
2022/04/26 11:14:46;;;;;;;9.98;7.82;;;;;;;12.81;100.00;100771.59;5052526;28;20090;-62
2022/04/26 11:17:11;;;;;;;12.70;7.68;;;;;;;12.87;100.00;100773.94;5051652;28;20059;-62
2022/04/26 11:19:38;;;;;;;9.38;6.70;;;;;;;12.65;100.00;100783.91;5067347;28;20872;-61
2022/04/26 11:22:07;;;;;;;15.98;7.03;;;;;;;12.68;100.00;100791.63;5050996;28;20859;-62
2022/04/26 11:30:04;;;;;;;17.63;7.85;;;;;;;12.71;100.00;100788.84;5092892;28;20542;-62
2022/04/26 11:32:34;;;;;;;9.68;6.03;;;;;;;13.06;100.00;100797.53;5092665;28;20505;-62
2022/04/26 11:35:01;;;;;;;11.15;6.45;;;;;;;13.98;100.00;100797.63;5050069;28;20036;-62
2022/04/26 11:37:26;;;;;;;10.95;6.43;;;;;;;14.51;100.00;100780.41;5049868;28;20024;-62
2022/04/26 11:39:52;;;;;;;11.10;6.82;;;;;;;14.62;98.18;100792.06;5033186;28;20189;-62
2022/04/26 11:42:17;;;;;;;11.30;6.05;;;;;;;14.51;98.68;100789.19;5051003;28;20982;-62
2022/04/26 11:44:59;;;;;;;12.70;6.60;;;;;;;14.50;98.64;100773.44;5051485;28;20032;-62
2022/04/26 11:47:57;;;;;;;11.23;5.05;;;;;;;14.32;95.35;100805.28;5092741;28;20383;-61
2022/04/26 11:50:27;;;;;;;7.93;5.47;;;;;;;14.40;96.42;100804.84;5047843;28;20062;-62
2022/04/26 11:52:59;;;;;;;14.40;5.90;;;;;;;14.88;90.25;100808.97;5092373;28;20462;-61
2022/04/26 11:55:27;;;;;;;9.77;5.15;;;;;;;15.09;90.18;100815.59;5093191;28;20028;-62
2022/04/26 11:58:04;;;;;;;7.85;5.38;;;;;;;15.19;92.51;100814.09;5093196;28;20161;-63
2022/04/26 12:00:29;;;;;;;7.55;5.18;;;;;;;14.78;89.53;100813.13;5093195;28;20119;-62
2022/04/26 12:02:55;;;;;;;7.40;5.07;;;;;;;14.30;90.33;100809.78;5108416;28;20150;-63
2022/04/26 12:05:21;;;;;;;9.48;5.80;;;;;;;13.87;92.92;100796.53;5092874;28;20053;-62
2022/04/26 12:07:47;;;;;;;13.45;5.53;;;;;;;13.76;96.78;100790.06;5080886;28;20032;-62
2022/04/26 12:10:26;;;;;;;10.00;5.10;;;;;;;13.73;98.62;100778.81;5050195;28;20086;-62
2022/04/26 12:13:05;;;;;;;9.60;6.13;;;;;;;14.00;95.66;100824.78;5047897;28;20059;-62
2022/04/26 12:15:35;;;;;;;6.57;4.82;;;;;;;14.01;96.26;100823.88;5031155;28;20032;-62
2022/04/26 12:18:14;;;;;;;11.38;5.22;;;;;;;13.95;96.35;100818.09;5049920;28;20108;-62
2022/04/26 12:20:57;;;;;;;9.07;5.35;;;;;;;14.00;96.06;100819.50;5049608;28;21018;-63
2022/04/26 12:23:23;;;;;;;10.68;5.18;;;;;;;15.06;95.12;100822.88;5044152;28;20881;-62
2022/04/26 12:26:02;;;;;;;7.40;5.03;;;;;;;15.31;89.79;100813.28;5028413;28;20041;-62
2022/04/26 12:28:28;;;;;;;7.72;5.05;;;;;;;15.15;89.20;100819.66;5030524;28;20029;-62
2022/04/26 12:30:54;;;;;;;7.47;4.97;;;;;;;15.26;87.48;100825.13;5016756;28;20016;-63
2022/04/26 12:33:30;;;;;;;9.20;4.65;;;;;;;16.32;89.63;100829.66;5044455;28;20151;-62
2022/04/26 12:36:01;;;;;;;8.52;5.03;;;;;;;16.92;83.91;100817.66;5038317;28;21105;-63
2022/04/26 12:38:27;;;;;;;9.65;5.43;;;;;;;16.57;81.13;100822.72;5042681;28;20023;-63
2022/04/26 12:41:04;;;;;;;8.02;5.72;;;;;;;16.07;82.47;100786.31;5054971;28;20079;-63
2022/04/26 12:43:31;;;;;;;8.15;5.00;;;;;;;18.67;79.92;100823.28;5040075;28;20145;-63
2022/04/26 12:45:58;;;;;;;8.65;5.72;;;;;;;21.16;73.09;100816.88;5049659;28;20034;-62
2022/04/26 12:51:24;;;;;;;8.38;5.47;;;;;;;19.29;66.85;100815.72;5044615;28;20116;-63
2022/04/26 12:53:51;;;;;;;7.43;5.57;;;;;;;20.07;70.78;100814.72;5038888;28;20029;-63
2022/04/26 12:56:18;;;;;;;8.27;5.85;;;;;;;22.65;62.04;100803.25;5042405;28;20234;-63
2022/04/26 12:58:45;;;;;;;6.28;4.80;;;;;;;21.90;60.61;100812.03;5041665;28;20068;-63
2022/04/26 13:01:11;;;;;;;6.78;4.53;;;;;;;20.78;62.18;100814.84;5040915;28;20670;-62
2022/04/26 13:03:38;;;;;;;8.48;5.45;;;;;;;21.55;59.34;100823.22;5041522;28;20028;-63
2022/04/26 13:06:15;;;;;;;8.45;5.68;;;;;;;19.69;59.29;100818.72;5040402;28;20086;-62
2022/04/26 13:08:42;;;;;;;8.82;5.85;;;;;;;17.62;62.96;100771.84;5026164;28;20036;-62
2022/04/26 13:11:08;;;;;;;8.77;5.63;;;;;;;16.77;66.07;100823.06;5043112;28;20139;-63
2022/04/26 13:13:35;;;;;;;7.35;5.50;;;;;;;16.13;69.55;100807.97;5022741;28;20036;-63
2022/04/26 13:16:00;;;;;;;10.10;5.43;;;;;;;17.74;67.39;100817.94;5025594;28;20051;-63
2022/04/26 13:18:26;;;;;;;7.47;4.55;;;;;;;17.64;66.14;100823.06;5030305;28;20031;-62
2022/04/26 13:20:54;;;;;;;9.43;4.75;;;;;;;16.91;68.25;100811.47;5010143;28;20040;-62
2022/04/26 13:23:20;;;;;;;8.98;5.63;;;;;;;16.25;67.77;100825.72;5031001;28;20795;-62
2022/04/26 13:25:45;;;;;;;13.18;5.43;;;;;;;15.65;70.43;100822.63;5033235;28;20025;-63
2022/04/26 13:28:11;;;;;;;7.88;5.18;;;;;;;15.24;71.96;100811.97;5031495;28;20028;-63
2022/04/26 13:30:37;;;;;;;14.25;6.00;;;;;;;15.17;72.54;100823.94;5032150;28;20060;-63
2022/04/26 13:33:03;;;;;;;8.35;5.13;;;;;;;14.91;72.88;100819.38;5013713;28;20049;-63
2022/04/26 13:35:28;;;;;;;16.15;5.68;;;;;;;14.85;73.90;100817.09;5051644;28;20033;-63
2022/04/26 13:37:55;;;;;;;11.57;6.35;;;;;;;14.97;74.79;100821.63;5038962;28;20024;-63
2022/04/26 13:40:21;;;;;;;8.10;5.45;;;;;;;15.38;74.89;100805.00;5022705;28;20123;-62
2022/04/26 13:42:47;;;;;;;17.92;5.72;;;;;;;16.09;74.27;100808.25;5046054;28;20186;-62
2022/04/26 13:45:13;;;;;;;9.18;5.65;;;;;;;16.21;71.43;100795.06;5035674;28;20020;-63
2022/04/26 13:47:40;;;;;;;7.85;5.78;;;;;;;16.89;70.57;100797.47;5029798;28;20858;-62
2022/04/26 13:50:07;;;;;;;18.85;5.07;;;;;;;17.30;67.28;100803.34;5028994;28;20032;-63
2022/04/26 13:52:33;;;;;;;8.40;5.53;;;;;;;16.83;67.91;100806.69;5028868;28;20187;-62
2022/04/26 13:54:59;;;;;;;6.60;5.15;;;;;;;16.91;68.17;100784.94;5028531;28;20035;-62
2022/04/26 13:57:24;;;;;;;6.53;4.57;;;;;;;17.47;66.33;100788.03;5030564;28;20131;-63
2022/04/26 13:59:50;;;;;;;7.95;6.05;;;;;;;17.67;66.14;100800.75;5027440;28;20032;-63
2022/04/26 14:02:15;;;;;;;8.15;5.30;;;;;;;17.87;65.80;100797.47;5038564;28;20028;-62
2022/04/26 14:04:42;;;;;;;9.68;6.00;;;;;;;17.72;64.90;100803.91;5041299;28;20027;-62
2022/04/26 14:07:08;;;;;;;9.20;5.13;;;;;;;17.69;67.62;100797.00;5049368;28;20186;-62
2022/04/26 14:09:34;;;;;;;8.50;5.15;;;;;;;17.98;66.57;100797.50;5064331;28;20146;-62
2022/04/26 14:12:00;;;;;;;8.55;4.65;;;;;;;17.71;66.36;100796.91;5068264;28;20046;-63
2022/04/26 14:22:38;;;;;;;6.30;4.83;;;;;;;16.56;66.08;100790.03;5029243;28;20038;-62
2022/04/26 14:25:08;;;;;;;6.32;4.95;;;;;;;16.45;68.12;100804.97;5037896;28;20278;-63
2022/04/26 14:27:35;;;;;;;9.00;5.47;;;;;;;16.46;68.33;100799.53;5047338;28;20182;-62
2022/04/26 14:30:00;;;;;;;10.48;5.53;;;;;;;16.59;67.55;100789.84;5048277;28;20020;-62
2022/04/26 14:32:26;;;;;;;7.80;5.20;;;;;;;16.28;67.75;100796.34;5047563;28;20028;-62
2022/04/26 14:34:51;;;;;;;12.20;4.72;;;;;;;16.13;67.02;100796.50;5046977;28;20754;-62
2022/04/26 14:37:17;;;;;;;6.25;4.85;;;;;;;16.06;69.30;100774.88;5029776;28;20104;-63
2022/04/26 14:39:42;;;;;;;10.15;5.65;;;;;;;16.79;68.27;100791.97;5047284;28;20039;-61
2022/04/26 14:42:08;;;;;;;6.93;4.55;;;;;;;17.03;67.42;100805.34;5030303;28;20038;-61
2022/04/26 14:44:34;;;;;;;10.50;4.88;;;;;;;16.96;65.07;100803.22;5045215;28;20847;-60
2022/04/26 14:47:02;;;;;;;9.90;4.70;;;;;;;16.39;66.48;100808.03;5034029;28;20024;-62
2022/04/26 14:49:28;;;;;;;9.07;4.65;;;;;;;16.30;68.79;100791.78;5041304;28;20944;-63
2022/04/26 14:51:54;;;;;;;9.63;5.13;;;;;;;16.44;66.75;100803.25;5042328;28;20028;-62
2022/04/26 14:54:21;;;;;;;8.45;5.13;;;;;;;15.89;67.25;100745.97;5048019;28;20885;-62
2022/04/26 14:56:47;;;;;;;7.82;5.25;;;;;;;15.80;67.83;100783.69;5049601;28;20093;-62
2022/04/26 14:59:13;;;;;;;6.50;4.63;;;;;;;15.55;68.10;100717.34;5047610;28;20127;-62
2022/04/26 15:01:44;;;;;;;9.32;5.15;;;;;;;16.88;66.82;100801.09;5047582;28;20040;-61
2022/04/26 15:04:10;;;;;;;11.77;5.00;;;;;;;17.69;64.51;100806.78;5048388;28;20032;-62
2022/04/26 15:06:35;;;;;;;8.85;5.00;;;;;;;18.22;63.11;100802.78;5049916;28;20808;-62
2022/04/26 15:11:45;;;;;;;10.07;5.32;;;;;;;18.05;63.75;100798.75;5051409;28;20843;-62
2022/04/26 15:16:54;;;;;;;6.20;4.20;;;;;;;19.20;62.64;100787.13;5049789;28;20047;-63
2022/04/26 15:19:20;;;;;;;7.05;4.80;;;;;;;18.74;61.06;100813.00;5048963;28;20028;-63
2022/04/26 15:21:45;;;;;;;9.30;4.85;;;;;;;18.04;61.49;100818.34;5048747;28;20810;-63
2022/04/26 15:24:11;;;;;;;8.70;4.75;;;;;;;19.16;60.05;100816.81;5052240;28;20908;-65